createdAt,value
2022-08-20T00:01:02.192Z,97981.94
2022-08-20T00:06:17.232Z,97971.84
2022-08-20T00:11:25.175Z,97979.69
2022-08-20T00:16:32.794Z,97974.34
2022-08-20T00:21:34.552Z,97966.41
2022-08-20T00:26:36.969Z,97974.75
2022-08-20T00:31:54.091Z,97973.16
2022-08-20T00:36:55.976Z,97982.19
2022-08-20T00:41:58.036Z,97975.88
2022-08-20T00:47:00.285Z,97971.06
2022-08-20T00:52:09.398Z,97964.19
2022-08-20T00:57:55.769Z,97970.19
2022-08-20T01:02:57.733Z,97976.19
2022-08-20T01:07:59.631Z,97966.09
2022-08-20T01:13:11.226Z,97970.75
2022-08-20T01:18:16.630Z,97968.03
2022-08-20T01:23:32.706Z,97976.97
2022-08-20T01:28:43.769Z,97978.50
2022-08-20T01:33:46.595Z,97975.28
2022-08-20T01:38:54.168Z,97980.47
2022-08-20T01:43:58.806Z,97972.47
2022-08-20T01:49:13.555Z,97984.06
2022-08-20T01:54:15.745Z,97978.22
2022-08-20T01:59:17.553Z,97985.59
2022-08-20T02:04:20.203Z,97974.69
2022-08-20T02:09:23.234Z,97979.63
2022-08-20T02:14:26.619Z,97983.31
2022-08-20T02:19:45.268Z,97978.81
2022-08-20T02:24:47.457Z,97976.91
2022-08-20T02:29:50.371Z,97971.06
2022-08-20T02:34:52.309Z,97977.03
2022-08-20T02:39:54.241Z,97969.59
2022-08-20T02:44:56.182Z,97971.44
2022-08-20T02:49:59.749Z,97971.91
2022-08-20T02:55:01.770Z,97962.41
2022-08-20T03:00:12.807Z,97954.94
2022-08-20T03:05:14.975Z,97952.66
2022-08-20T03:10:17.412Z,97954.47
2022-08-20T03:15:20.521Z,97954.38
2022-08-20T03:20:24.023Z,97955.44
2022-08-20T03:25:27.080Z,97954.84
2022-08-20T03:30:29.498Z,97959.56
2022-08-20T03:35:33.193Z,97962.69
2022-08-20T03:40:36.518Z,97960.53
2022-08-20T03:45:40.560Z,97959.19
2022-08-20T03:50:44.167Z,97959.41
2022-08-20T03:55:53.883Z,97962.50
2022-08-20T04:00:59.039Z,97964.59
2022-08-20T04:06:00.986Z,97965.28
2022-08-20T04:11:03.083Z,97966.56
2022-08-20T04:16:11.304Z,97971.50
2022-08-20T04:21:17.026Z,97974.59
2022-08-20T04:26:20.022Z,97968.75
2022-08-20T04:31:25.579Z,97967.38
2022-08-20T04:36:27.761Z,97978.41
2022-08-20T04:41:29.683Z,97983.91
2022-08-20T04:46:32.843Z,97987.34
2022-08-20T04:51:34.890Z,97994.44
2022-08-20T04:56:39.897Z,97998.09
2022-08-20T05:01:41.925Z,97995.72
2022-08-20T05:06:44.668Z,98000.19
2022-08-20T05:11:46.518Z,98009.44
2022-08-20T05:16:48.554Z,98002.25
2022-08-20T05:21:53.800Z,98000.50
2022-08-20T05:26:55.860Z,98001.66
2022-08-20T05:31:57.722Z,98002.56
2022-08-20T05:37:04.531Z,97999.81
2022-08-20T05:42:09.691Z,98003.16
2022-08-20T05:47:11.584Z,98007.28
2022-08-20T05:52:13.456Z,98006.03
2022-08-20T05:57:20.218Z,98011.84
2022-08-20T06:02:40.937Z,98022.41
2022-08-20T06:07:43.454Z,98018.16
2022-08-20T06:12:45.590Z,98017.81
2022-08-20T06:17:47.462Z,98020.69
2022-08-20T06:23:00.645Z,98033.28
2022-08-20T06:28:04.258Z,98037.97
2022-08-20T06:33:06.838Z,98045.06
2022-08-20T06:38:11.446Z,98054.34
2022-08-20T06:43:13.605Z,98058.00
2022-08-20T06:48:15.729Z,98062.94
2022-08-20T06:53:20.960Z,98054.91
2022-08-20T06:58:36.175Z,98058.22
2022-08-20T07:03:42.223Z,98055.59
2022-08-20T07:08:57.868Z,98058.31
2022-08-20T07:13:59.959Z,98061.63
2022-08-20T07:19:01.862Z,98066.31
2022-08-20T07:24:04.162Z,98070.22
2022-08-20T07:29:06.132Z,98079.13
2022-08-20T07:34:08.418Z,98086.22
2022-08-20T07:39:10.373Z,98084.63
2022-08-20T07:44:12.413Z,98085.66
2022-08-20T07:49:14.255Z,98082.44
2022-08-20T07:54:16.101Z,98084.84
2022-08-20T07:59:18.201Z,98102.03
2022-08-20T08:04:20.133Z,98107.88
2022-08-20T08:09:25.439Z,98108.91
2022-08-20T08:14:31.639Z,98110.50
2022-08-20T08:19:49.428Z,98115.31
2022-08-20T08:24:57.313Z,98121.38
2022-08-20T08:30:01.393Z,98117.50
2022-08-20T08:35:09.360Z,98119.09
2022-08-20T08:40:11.827Z,98119.91
2022-08-20T08:45:18.363Z,98126.78
2022-08-20T08:50:50.036Z,98132.19
2022-08-20T08:55:48.886Z,98132.66
2022-08-20T09:00:50.983Z,98140.34
2022-08-20T09:06:00.477Z,98147.44
2022-08-20T09:11:05.417Z,98145.59
2022-08-20T09:16:07.537Z,98141.13
2022-08-20T09:21:09.855Z,98139.31
2022-08-20T09:26:12.272Z,98137.47
2022-08-20T09:31:14.598Z,98133.47
2022-08-20T09:36:29.006Z,98141.59
2022-08-20T09:41:34.849Z,98144.00
2022-08-20T09:46:37.051Z,98136.44
2022-08-20T09:51:39.125Z,98138.06
2022-08-20T09:56:41.227Z,98139.88
2022-08-20T10:01:43.229Z,98145.38
2022-08-20T10:06:45.820Z,98147.22
2022-08-20T10:11:47.761Z,98150.78
2022-08-20T10:16:56.199Z,98150.31
2022-08-20T10:22:02.415Z,98146.44
2022-08-20T10:27:04.759Z,98149.06
2022-08-20T10:32:12.536Z,98153.66
2022-08-20T10:37:23.499Z,98155.03
2022-08-20T10:42:25.336Z,98160.88
2022-08-20T10:47:30.125Z,98156.97
2022-08-20T10:52:32.288Z,98163.06
2022-08-20T10:57:34.818Z,98156.53
2022-08-20T11:02:36.836Z,98155.72
2022-08-20T11:07:55.356Z,98155.72
2022-08-20T11:13:05.407Z,98155.72
2022-08-20T11:18:07.684Z,98165.47
2022-08-20T11:23:09.656Z,98167.06
2022-08-20T11:28:13.037Z,98177.63
2022-08-20T11:33:15.891Z,98180.69
2022-08-20T11:38:19.850Z,98188.59
2022-08-20T11:43:21.657Z,98198.56
2022-08-20T11:48:23.700Z,98203.25
2022-08-20T11:53:25.806Z,98205.53
2022-08-20T11:58:27.900Z,98204.50
2022-08-20T12:03:31.137Z,98207.38
2022-08-20T12:08:33.072Z,98207.94
2022-08-20T12:13:47.397Z,98211.97
2022-08-20T12:18:51.068Z,98220.09
2022-08-20T12:23:53.041Z,98222.38
2022-08-20T12:28:58.991Z,98223.19
2022-08-20T12:34:00.841Z,98219.88
2022-08-20T12:39:02.942Z,98215.97
2022-08-20T12:44:07.298Z,98224.69
2022-08-20T12:49:16.485Z,98229.38
2022-08-20T12:54:18.545Z,98225.13
2022-08-20T12:59:26.054Z,98219.06
2022-08-20T13:04:28.357Z,98213.78
2022-08-20T13:09:30.627Z,98210.34
2022-08-20T13:14:32.670Z,98216.19
2022-08-20T13:19:36.614Z,98222.28
2022-08-20T13:24:38.755Z,98216.19
2022-08-20T13:29:47.879Z,98217.81
2022-08-20T13:34:50.926Z,98218.75
2022-08-20T13:39:57.294Z,98218.28
2022-08-20T13:44:59.186Z,98227.00
2022-08-20T13:50:05.398Z,98236.28
2022-08-20T13:55:10.804Z,98234.22
2022-08-20T14:00:17.003Z,98224.88
2022-08-20T14:05:19.319Z,98222.38
2022-08-20T14:10:26.984Z,98224.53
2022-08-20T14:15:29.679Z,98221.34
2022-08-20T14:20:34.348Z,98214.34
2022-08-20T14:25:38.685Z,98214.97
2022-08-20T14:30:41.098Z,98209.94
2022-08-20T14:35:43.238Z,98217.50
2022-08-20T14:40:45.321Z,98213.34
2022-08-20T14:45:47.323Z,98215.03
2022-08-20T14:50:49.165Z,98217.31
2022-08-20T14:55:51.089Z,98219.75
2022-08-20T15:00:54.188Z,98211.59
2022-08-20T15:05:57.697Z,98212.19
2022-08-20T15:11:00.245Z,98213.34
2022-08-20T15:16:02.892Z,98218.97
2022-08-20T15:21:05.085Z,98215.66
2022-08-20T15:26:13.068Z,98207.31
2022-08-20T15:31:15.484Z,98211.91
2022-08-20T15:36:17.489Z,98219.59
2022-08-20T15:41:19.424Z,98227.72
2022-08-20T15:46:21.322Z,98232.78
2022-08-20T15:51:31.739Z,98227.28
2022-08-20T15:57:01.798Z,98226.03
2022-08-20T16:02:26.061Z,98220.75
2022-08-20T16:07:44.321Z,98233.94
2022-08-20T16:12:51.718Z,98239.44
2022-08-20T16:18:00.733Z,98245.34
2022-08-20T16:23:04.281Z,98237.75
2022-08-20T16:28:28.266Z,98233.97
2022-08-20T16:33:55.382Z,98241.28
2022-08-20T16:39:02.774Z,98240.72
2022-08-20T16:44:21.510Z,98250.22
2022-08-20T16:49:27.496Z,98253.91
2022-08-20T16:54:31.219Z,98256.75
2022-08-20T16:59:33.792Z,98265.09
2022-08-20T17:04:50.447Z,98264.31
2022-08-20T17:10:15.099Z,98262.91
2022-08-20T17:15:30.659Z,98267.25
2022-08-20T17:20:46.000Z,98267.34
2022-08-20T17:26:17.222Z,98277.66
2022-08-20T17:31:48.301Z,98285.09
2022-08-20T17:37:08.178Z,98287.50
2022-08-20T17:42:18.024Z,98292.56
2022-08-20T17:47:25.462Z,98288.53
2022-08-20T17:52:28.796Z,98297.03
2022-08-20T17:57:38.210Z,98290.38
2022-08-20T18:02:40.816Z,98287.72
2022-08-20T18:07:51.698Z,98294.63
2022-08-20T18:13:00.537Z,98298.84
2022-08-20T18:18:11.004Z,98295.41
2022-08-20T18:23:47.641Z,98299.66
2022-08-20T18:28:59.595Z,98309.38
2022-08-20T18:34:12.713Z,98304.78
2022-08-20T18:39:36.314Z,98305.00
2022-08-20T18:44:41.477Z,98311.31
2022-08-20T18:49:47.304Z,98314.16
2022-08-20T18:54:57.321Z,98318.63
2022-08-20T19:00:11.735Z,98317.81
2022-08-20T19:05:16.226Z,98331.22
2022-08-20T19:10:28.220Z,98331.22
2022-08-20T19:15:33.881Z,98330.19
2022-08-20T19:20:39.742Z,98331.22
2022-08-20T19:25:56.730Z,98325.94
2022-08-20T19:31:24.553Z,98332.00
2022-08-20T19:36:28.105Z,98332.22
2022-08-20T19:41:34.383Z,98327.41
2022-08-20T19:46:44.498Z,98323.16
2022-08-20T19:52:11.671Z,98326.47
2022-08-20T19:57:14.912Z,98310.28
2022-08-20T20:02:20.434Z,98315.78
2022-08-20T20:07:35.823Z,98315.19
2022-08-20T20:12:40.227Z,98313.22
2022-08-20T20:17:43.403Z,98310.00
2022-08-20T20:22:57.259Z,98305.75
2022-08-20T20:28:17.638Z,98313.28
2022-08-20T20:33:29.909Z,98314.09
2022-08-20T20:38:32.334Z,98299.91
2022-08-20T20:43:38.908Z,98304.16
2022-08-20T20:48:46.308Z,98293.84
2022-08-20T20:53:54.652Z,98281.94
2022-08-20T20:59:00.207Z,98290.47
2022-08-20T21:04:04.527Z,98283.38
2022-08-20T21:09:06.405Z,98287.47
2022-08-20T21:14:08.381Z,98274.75
2022-08-20T21:19:11.198Z,98267.31
2022-08-20T21:24:13.155Z,98260.44
2022-08-20T21:29:30.540Z,98258.81
2022-08-20T21:34:34.377Z,98254.78
2022-08-20T21:39:36.421Z,98257.63
2022-08-20T21:44:38.525Z,98254.41
2022-08-20T21:49:51.757Z,98252.81
2022-08-20T21:54:53.671Z,98253.81
2022-08-20T21:59:57.344Z,98247.53
2022-08-20T22:04:59.141Z,98243.88
2022-08-20T22:10:00.922Z,98242.50
2022-08-20T22:15:04.022Z,98240.44
2022-08-20T22:20:06.445Z,98243.06
2022-08-20T22:25:10.267Z,98252.81
2022-08-20T22:30:15.244Z,98256.44
2022-08-20T22:35:17.570Z,98253.03
2022-08-20T22:40:20.106Z,98247.75
2022-08-20T22:45:22.005Z,98259.66
2022-08-20T22:50:25.505Z,98255.22
2022-08-20T22:55:27.449Z,98250.53
2022-08-20T23:00:30.352Z,98255.56
2022-08-20T23:05:35.033Z,98246.66
2022-08-20T23:10:38.596Z,98250.09
2022-08-20T23:15:41.504Z,98254.56
2022-08-20T23:20:52.788Z,98244.66
2022-08-20T23:25:55.557Z,98243.03
2022-08-20T23:30:57.389Z,98241.41
2022-08-20T23:35:59.687Z,98231.31
2022-08-20T23:41:01.853Z,98234.97
2022-08-20T23:46:06.724Z,98234.97
2022-08-20T23:51:08.762Z,98232.34
2022-08-20T23:56:10.736Z,98232.34
